Repülésmeteorológia

  • METAR LHSM 111545Z 15012KT CAVOK 12/05 Q1000=
  • METAR LHSM 111515Z 15013KT CAVOK 13/05 Q1000 NOSIG=
  • METAR LHSM 111445Z 16016G27KT CAVOK 13/05 Q1000 NOSIG=
  • METAR LHSM 111415Z 17018KT CAVOK 13/05 Q0999 NOSIG=
  • METAR LHSM 111345Z 15017KT 9999 BKN046 BKN083 12/05 Q1000 RERA

  • TAF LHSM 111115Z 1112/1121 18016KT CAVOK
  • TAF LHSM 110815Z 1109/1118 17015KT CAVOK
  • TAF LHSM 110515Z 1106/1115 15005KT 9999 BKN040
  • TAF LHSM 101115Z 1012/1021 19018G33KT CAVOK
  • TAF LHSM 100815Z 1009/1018 18009KT CAVOK